createdAt,value
2019-05-26T00:02:26.067Z,11.50
2019-05-26T00:04:54.864Z,11.50
2019-05-26T00:07:30.732Z,11.60
2019-05-26T00:09:54.199Z,11.50
2019-05-26T00:12:22.962Z,11.50
2019-05-26T00:14:51.727Z,11.60
2019-05-26T00:17:20.611Z,11.60
2019-05-26T00:19:49.435Z,11.50
2019-05-26T00:22:18.278Z,11.60
2019-05-26T00:24:47.111Z,11.70
2019-05-26T00:27:16.043Z,11.70
2019-05-26T00:29:44.793Z,11.60
2019-05-26T00:32:14.567Z,11.70
2019-05-26T00:34:45.141Z,11.70
2019-05-26T00:37:13.985Z,11.80
2019-05-26T00:39:42.862Z,11.80
2019-05-26T00:42:11.763Z,11.70
2019-05-26T00:44:40.550Z,11.70
2019-05-26T00:47:09.380Z,11.60
2019-05-26T00:49:38.221Z,11.70
2019-05-26T00:52:07.317Z,11.70
2019-05-26T00:54:36.226Z,11.70
2019-05-26T00:57:05.158Z,11.70
2019-05-26T00:59:33.917Z,11.70
2019-05-26T01:02:02.685Z,11.80
2019-05-26T01:04:31.513Z,11.80
2019-05-26T01:07:00.246Z,11.80
2019-05-26T01:09:30.162Z,11.80
2019-05-26T01:11:58.914Z,11.70
2019-05-26T01:14:27.681Z,11.70
2019-05-26T01:16:56.507Z,11.70
2019-05-26T01:19:25.276Z,11.80
2019-05-26T01:21:53.956Z,11.80
2019-05-26T01:24:22.791Z,11.70
2019-05-26T01:26:51.671Z,11.80
2019-05-26T01:29:21.768Z,11.80
2019-05-26T01:31:50.579Z,11.80
2019-05-26T01:34:19.409Z,11.80
2019-05-26T01:36:48.360Z,11.80
2019-05-26T01:39:17.186Z,11.80
2019-05-26T01:41:47.780Z,11.80
2019-05-26T01:44:16.546Z,11.90
2019-05-26T01:46:45.326Z,11.90
2019-05-26T01:49:14.151Z,11.90
2019-05-26T01:51:44.031Z,11.90
2019-05-26T01:54:11.937Z,11.90
2019-05-26T01:56:40.736Z,11.90
2019-05-26T01:59:09.458Z,11.80
2019-05-26T02:01:38.283Z,11.80
2019-05-26T02:04:07.115Z,11.90
2019-05-26T02:06:35.940Z,11.90
2019-05-26T02:09:07.342Z,11.80
2019-05-26T02:11:36.170Z,11.90
2019-05-26T02:14:05.531Z,11.90
2019-05-26T02:16:34.388Z,11.80
2019-05-26T02:19:03.291Z,11.80
2019-05-26T02:21:32.040Z,11.90
2019-05-26T02:24:00.989Z,11.90
2019-05-26T02:26:29.844Z,11.90
2019-05-26T02:28:58.658Z,11.90
2019-05-26T02:31:27.519Z,12.00
2019-05-26T02:33:56.315Z,12.00
2019-05-26T02:36:25.142Z,12.00
2019-05-26T02:39:02.026Z,12.00
2019-05-26T02:41:24.337Z,12.00
2019-05-26T02:43:53.141Z,12.00
2019-05-26T02:46:21.990Z,12.00
2019-05-26T02:48:50.829Z,12.00
2019-05-26T02:51:19.577Z,11.90
2019-05-26T02:53:48.432Z,11.90
2019-05-26T02:56:17.492Z,11.80
2019-05-26T02:58:46.334Z,11.70
2019-05-26T03:01:15.093Z,11.80
2019-05-26T03:03:44.218Z,11.90
2019-05-26T03:06:14.709Z,11.90
2019-05-26T03:08:45.854Z,11.90
2019-05-26T03:11:15.485Z,11.90
2019-05-26T03:13:47.114Z,11.90
2019-05-26T03:16:18.055Z,11.90
2019-05-26T03:18:49.743Z,11.90
2019-05-26T03:21:20.678Z,11.90
2019-05-26T03:23:52.537Z,11.90
2019-05-26T03:26:21.418Z,11.90
2019-05-26T03:28:50.238Z,12.00
2019-05-26T03:31:19.075Z,12.10
2019-05-26T03:33:47.918Z,12.00
2019-05-26T03:36:16.829Z,12.10
2019-05-26T03:38:45.675Z,12.10
2019-05-26T03:41:14.434Z,12.00
2019-05-26T03:43:43.256Z,12.10
2019-05-26T03:46:22.344Z,12.20
2019-05-26T03:48:51.785Z,12.20
2019-05-26T03:51:20.608Z,12.20
2019-05-26T03:53:49.453Z,12.20
2019-05-26T03:56:19.457Z,12.30
2019-05-26T03:58:48.195Z,12.30
2019-05-26T04:01:17.035Z,12.30
2019-05-26T04:03:45.846Z,12.20
2019-05-26T04:06:14.726Z,12.20
2019-05-26T04:08:43.483Z,12.30
2019-05-26T04:11:12.434Z,12.30
2019-05-26T04:13:41.261Z,12.40
2019-05-26T04:16:10.084Z,12.40
2019-05-26T04:18:40.765Z,12.40
2019-05-26T04:21:11.126Z,12.50
2019-05-26T04:23:39.802Z,12.60
2019-05-26T04:26:08.682Z,12.80
2019-05-26T04:28:37.432Z,12.80
2019-05-26T04:31:06.270Z,12.70
2019-05-26T04:33:34.985Z,12.70
2019-05-26T04:36:03.752Z,12.70
2019-05-26T04:38:32.579Z,12.70
2019-05-26T04:41:01.443Z,12.80
2019-05-26T04:43:30.202Z,12.80
2019-05-26T04:45:59.029Z,12.70
2019-05-26T04:48:27.806Z,12.70
2019-05-26T04:50:56.629Z,12.70
2019-05-26T04:53:26.455Z,12.60
2019-05-26T04:55:54.376Z,12.60
2019-05-26T04:58:23.257Z,12.80
2019-05-26T05:00:52.092Z,12.80
2019-05-26T05:03:22.064Z,12.80
2019-05-26T05:05:50.881Z,12.70
2019-05-26T05:08:19.670Z,12.80
2019-05-26T05:10:48.414Z,12.80
2019-05-26T05:13:17.217Z,12.90
2019-05-26T05:15:45.990Z,12.80
2019-05-26T05:18:14.757Z,12.90
2019-05-26T05:20:43.515Z,12.90
2019-05-26T05:23:12.380Z,12.80
2019-05-26T05:25:41.130Z,12.90
2019-05-26T05:28:10.069Z,12.90
2019-05-26T05:30:38.808Z,13.00
2019-05-26T05:33:07.639Z,13.00
2019-05-26T05:35:36.466Z,13.00
2019-05-26T05:38:05.398Z,13.10
2019-05-26T05:40:34.284Z,13.00
2019-05-26T05:43:02.998Z,13.10
2019-05-26T05:45:31.756Z,13.00
2019-05-26T05:48:00.544Z,13.00
2019-05-26T05:50:29.472Z,13.10
2019-05-26T05:52:58.310Z,13.10
2019-05-26T05:55:27.423Z,13.20
2019-05-26T05:57:56.182Z,13.50
2019-05-26T06:00:25.237Z,14.00
2019-05-26T06:02:53.962Z,14.20
2019-05-26T06:05:22.908Z,14.50
2019-05-26T06:07:51.667Z,14.30
2019-05-26T06:10:20.493Z,14.20
2019-05-26T06:12:49.327Z,14.30
2019-05-26T06:15:18.381Z,14.10
2019-05-26T06:17:48.168Z,14.20
2019-05-26T06:20:18.437Z,14.20
2019-05-26T06:22:46.956Z,14.60
2019-05-26T06:25:16.087Z,14.60
2019-05-26T06:27:44.854Z,14.60
2019-05-26T06:30:14.975Z,14.80
2019-05-26T06:32:43.848Z,14.70
2019-05-26T06:35:14.744Z,14.60
2019-05-26T06:37:43.260Z,14.40
2019-05-26T06:40:12.635Z,14.70
2019-05-26T06:42:41.394Z,14.50
2019-05-26T06:45:11.531Z,14.50
2019-05-26T06:47:40.343Z,14.40
2019-05-26T06:50:09.176Z,14.40
2019-05-26T06:52:37.943Z,14.60
2019-05-26T06:55:07.023Z,14.80
2019-05-26T06:57:35.821Z,14.90
2019-05-26T07:00:07.366Z,15.10
2019-05-26T07:02:36.153Z,15.30
2019-05-26T07:05:06.952Z,15.10
2019-05-26T07:07:35.654Z,15.20
2019-05-26T07:10:06.585Z,15.30
2019-05-26T07:12:35.742Z,15.50
2019-05-26T07:15:08.825Z,15.60
2019-05-26T07:17:37.592Z,15.80
2019-05-26T07:20:08.423Z,15.60
2019-05-26T07:22:37.299Z,15.80
2019-05-26T07:25:07.840Z,16.10
2019-05-26T07:27:36.539Z,15.90
2019-05-26T07:30:09.071Z,16.10
2019-05-26T07:32:37.994Z,16.00
2019-05-26T07:35:10.170Z,16.00
2019-05-26T07:37:39.111Z,16.60
2019-05-26T07:40:09.262Z,16.70
2019-05-26T07:42:38.162Z,16.80
2019-05-26T07:45:07.456Z,16.30
2019-05-26T07:47:36.279Z,16.10
2019-05-26T07:50:06.976Z,15.80
2019-05-26T07:52:35.820Z,15.70
2019-05-26T07:55:05.482Z,15.80
2019-05-26T07:57:34.299Z,15.70
2019-05-26T08:00:04.247Z,16.00
2019-05-26T08:02:33.068Z,16.30
2019-05-26T08:05:01.887Z,16.30
2019-05-26T08:07:32.553Z,16.60
2019-05-26T08:10:01.521Z,16.70
2019-05-26T08:12:30.830Z,17.10
2019-05-26T08:14:59.767Z,16.80
2019-05-26T08:17:28.661Z,16.40
2019-05-26T08:19:57.353Z,16.20
2019-05-26T08:22:26.171Z,15.70
2019-05-26T08:24:55.048Z,15.70
2019-05-26T08:27:23.844Z,15.80
2019-05-26T09:07:16.815Z,15.40
2019-05-26T09:09:47.577Z,15.40
2019-05-26T09:12:15.911Z,15.30
2019-05-26T09:14:45.552Z,15.40
2019-05-26T09:17:14.615Z,15.20
2019-05-26T09:19:43.396Z,15.20
2019-05-26T09:22:12.155Z,15.20
2019-05-26T09:24:40.921Z,15.30
2019-05-26T09:27:09.678Z,15.20
2019-05-26T09:29:38.549Z,15.20
2019-05-26T09:32:07.337Z,15.50
2019-05-26T09:34:36.103Z,15.40
2019-05-26T09:37:04.855Z,15.30
2019-05-26T09:39:33.681Z,15.30
2019-05-26T09:42:02.440Z,15.20
2019-05-26T09:44:31.213Z,15.30
2019-05-26T09:47:00.020Z,15.10
2019-05-26T09:49:28.843Z,15.10
2019-05-26T09:51:57.671Z,15.10
2019-05-26T09:54:27.279Z,15.10
2019-05-26T09:57:01.602Z,15.00
2019-05-26T09:59:36.625Z,15.00
2019-05-26T10:02:06.100Z,15.00
2019-05-26T10:04:34.950Z,15.00
2019-05-26T10:07:04.451Z,15.10
2019-05-26T10:09:33.587Z,15.10
2019-05-26T10:12:04.099Z,15.00
2019-05-26T10:14:32.921Z,15.10
2019-05-26T10:17:01.590Z,15.00
2019-05-26T10:19:30.481Z,14.90
2019-05-26T10:21:59.306Z,15.00
2019-05-26T10:24:28.149Z,15.00
2019-05-26T10:26:56.967Z,14.90
2019-05-26T10:29:25.801Z,14.80
2019-05-26T10:31:54.558Z,14.60
2019-05-26T10:34:23.411Z,14.40
2019-05-26T10:36:52.235Z,14.30
2019-05-26T10:39:24.406Z,14.30
2019-05-26T10:41:53.493Z,14.30
2019-05-26T10:44:22.261Z,14.40
2019-05-26T10:46:51.085Z,14.50
2019-05-26T10:49:19.837Z,14.60
2019-05-26T10:51:48.602Z,14.50
2019-05-26T10:54:17.429Z,14.50
2019-05-26T10:56:46.255Z,14.50
2019-05-26T10:59:15.082Z,14.50
2019-05-26T11:01:43.916Z,14.50
2019-05-26T11:04:12.669Z,14.30
2019-05-26T11:06:41.433Z,14.30
2019-05-26T11:09:10.184Z,14.30
2019-05-26T11:11:39.003Z,14.10
2019-05-26T11:14:07.844Z,14.00
2019-05-26T11:16:36.681Z,13.90
2019-05-26T11:19:05.640Z,13.90
2019-05-26T11:21:34.466Z,13.90
2019-05-26T11:24:03.255Z,13.90
2019-05-26T11:26:33.433Z,13.90
2019-05-26T11:29:02.217Z,14.00
2019-05-26T11:31:31.044Z,14.10
2019-05-26T11:33:59.730Z,14.00
2019-05-26T11:36:28.629Z,13.90
2019-05-26T11:38:57.417Z,13.80
2019-05-26T11:41:26.251Z,13.70
2019-05-26T11:43:55.072Z,13.40
2019-05-26T11:46:23.836Z,13.30
2019-05-26T11:48:53.833Z,13.50
2019-05-26T11:51:22.617Z,13.40
2019-05-26T11:53:51.471Z,13.30
2019-05-26T11:56:20.297Z,13.30
2019-05-26T11:58:49.130Z,13.30
2019-05-26T12:01:17.959Z,13.40
2019-05-26T12:03:46.792Z,13.40
2019-05-26T12:06:17.087Z,13.30
2019-05-26T12:08:46.041Z,13.30
2019-05-26T12:11:19.058Z,13.20
2019-05-26T12:13:47.902Z,13.20
2019-05-26T12:16:16.709Z,13.30
2019-05-26T12:18:45.477Z,13.40
2019-05-26T12:21:14.152Z,13.50
2019-05-26T12:23:42.987Z,13.80
2019-05-26T12:26:11.763Z,13.90
2019-05-26T12:28:41.745Z,14.00
2019-05-26T12:31:10.473Z,14.20
2019-05-26T12:33:39.312Z,14.50
2019-05-26T12:36:08.199Z,14.40
2019-05-26T12:38:38.464Z,14.30
2019-05-26T12:41:07.230Z,14.00
2019-05-26T12:43:36.055Z,14.10
2019-05-26T12:46:05.140Z,14.00
2019-05-26T12:48:34.061Z,13.90
2019-05-26T12:51:02.824Z,13.80
2019-05-26T12:53:31.672Z,13.70
2019-05-26T12:56:00.445Z,13.60
2019-05-26T12:58:29.279Z,13.50
2019-05-26T13:00:58.053Z,13.40
2019-05-26T13:03:26.893Z,13.50
2019-05-26T13:05:55.645Z,13.40
2019-05-26T13:08:24.485Z,13.40
2019-05-26T13:10:53.239Z,13.50
2019-05-26T13:13:22.198Z,13.70
2019-05-26T13:15:51.056Z,13.60
2019-05-26T13:18:19.890Z,13.70
2019-05-26T13:20:48.710Z,13.50
2019-05-26T13:23:17.468Z,13.50
2019-05-26T13:25:46.503Z,13.50
2019-05-26T13:28:15.259Z,13.40
2019-05-26T13:30:44.030Z,13.40
2019-05-26T13:33:12.708Z,13.40
2019-05-26T13:35:41.577Z,13.40
2019-05-26T13:38:10.327Z,13.40
2019-05-26T13:40:39.327Z,13.40
2019-05-26T13:43:10.415Z,13.60
2019-05-26T13:45:38.769Z,13.60
2019-05-26T13:48:07.595Z,13.30
2019-05-26T13:50:36.421Z,13.20
2019-05-26T13:53:05.298Z,13.20
2019-05-26T13:55:34.142Z,13.30
2019-05-26T13:58:02.905Z,13.20
2019-05-26T14:00:31.724Z,13.20
2019-05-26T14:03:00.499Z,13.10
2019-05-26T14:05:29.321Z,13.00
2019-05-26T14:07:58.076Z,13.00
2019-05-26T14:10:39.207Z,13.00
2019-05-26T14:13:09.214Z,13.00
2019-05-26T14:15:39.444Z,13.10
2019-05-26T14:18:08.702Z,13.10
2019-05-26T14:20:39.040Z,13.00
2019-05-26T14:23:08.615Z,13.10
2019-05-26T14:25:37.833Z,13.20
2019-05-26T14:28:07.739Z,13.10
2019-05-26T14:30:35.932Z,13.00
2019-05-26T14:33:06.740Z,12.90
2019-05-26T14:35:35.555Z,12.70
2019-05-26T14:38:04.520Z,12.70
2019-05-26T14:40:33.454Z,12.70
2019-05-26T14:43:02.444Z,12.80
2019-05-26T14:45:31.262Z,12.70
2019-05-26T14:48:00.217Z,12.70
2019-05-26T14:50:29.040Z,12.80
2019-05-26T14:52:57.841Z,12.70
2019-05-26T14:55:26.684Z,12.80
2019-05-26T14:57:55.644Z,12.80
2019-05-26T15:00:24.787Z,13.00
2019-05-26T15:02:53.665Z,12.80
2019-05-26T15:05:22.526Z,12.70
2019-05-26T15:07:51.427Z,12.60
2019-05-26T15:10:22.587Z,12.70
2019-05-26T15:12:51.004Z,12.70
2019-05-26T15:15:20.217Z,12.80
2019-05-26T15:17:50.183Z,12.90
2019-05-26T15:20:20.882Z,12.90
2019-05-26T15:22:51.499Z,12.80
2019-05-26T15:25:23.631Z,12.90
2019-05-26T15:27:53.289Z,12.90
2019-05-26T15:30:27.666Z,12.80
2019-05-26T15:32:57.467Z,12.70
2019-05-26T15:35:26.538Z,12.60
2019-05-26T15:37:55.292Z,12.50
2019-05-26T15:40:24.184Z,12.50
2019-05-26T15:42:54.835Z,12.40
2019-05-26T15:45:23.621Z,12.30
2019-05-26T15:47:52.512Z,12.40
2019-05-26T15:50:21.461Z,12.40
2019-05-26T15:52:51.472Z,12.30
2019-05-26T15:55:20.381Z,12.40
2019-05-26T15:57:50.527Z,12.40
2019-05-26T16:00:19.872Z,12.30
2019-05-26T16:02:48.837Z,12.30
2019-05-26T16:05:17.660Z,12.40
2019-05-26T16:08:05.828Z,12.40
2019-05-26T16:10:36.292Z,12.40
2019-05-26T16:13:05.764Z,12.30
2019-05-26T16:15:34.674Z,12.20
2019-05-26T16:18:03.477Z,12.10
2019-05-26T16:20:32.253Z,12.00
2019-05-26T16:23:01.078Z,12.00
2019-05-26T16:25:29.966Z,11.90
2019-05-26T16:27:58.797Z,11.80
2019-05-26T16:30:32.104Z,11.80
2019-05-26T16:33:01.178Z,11.70
2019-05-26T16:35:31.415Z,11.80
2019-05-26T16:38:00.216Z,11.80
2019-05-26T16:40:29.135Z,11.70
2019-05-26T16:42:58.080Z,11.80
2019-05-26T16:45:28.407Z,11.80
2019-05-26T16:47:57.287Z,11.90
2019-05-26T16:50:27.996Z,11.90
2019-05-26T16:52:56.920Z,11.90
2019-05-26T16:55:25.854Z,11.90
2019-05-26T16:57:54.685Z,11.90
2019-05-26T17:00:23.623Z,11.90
2019-05-26T17:02:54.026Z,11.90
2019-05-26T17:05:24.571Z,11.90
2019-05-26T17:07:53.562Z,11.90
2019-05-26T17:10:23.931Z,11.90
2019-05-26T17:12:53.863Z,11.80
2019-05-26T17:15:22.678Z,11.80
2019-05-26T17:17:57.246Z,11.80
2019-05-26T17:20:26.205Z,11.80
2019-05-26T17:22:58.023Z,11.80
2019-05-26T17:25:31.049Z,11.70
2019-05-26T17:28:04.355Z,11.70
2019-05-26T17:30:36.205Z,11.80
2019-05-26T17:33:05.411Z,11.70
2019-05-26T17:35:36.534Z,11.60
2019-05-26T17:38:05.746Z,11.60
2019-05-26T17:40:36.193Z,11.70
2019-05-26T17:43:05.190Z,11.70
2019-05-26T17:45:36.731Z,11.70
2019-05-26T17:48:06.298Z,11.60
2019-05-26T17:50:35.137Z,11.60
2019-05-26T17:53:03.970Z,11.50
2019-05-26T17:55:34.282Z,11.60
2019-05-26T17:58:04.517Z,11.50
2019-05-26T18:00:35.413Z,11.40
2019-05-26T18:03:05.750Z,11.40
2019-05-26T18:05:34.693Z,11.30
2019-05-26T18:08:05.380Z,11.40
2019-05-26T18:10:34.275Z,11.30
2019-05-26T18:13:04.997Z,11.30
2019-05-26T18:15:35.533Z,11.20
2019-05-26T18:18:04.365Z,11.10
2019-05-26T18:20:33.201Z,11.10
2019-05-26T18:23:02.127Z,11.10
2019-05-26T18:25:38.180Z,10.90
2019-05-26T18:28:26.702Z,10.90
2019-05-26T18:30:58.107Z,10.90
2019-05-26T18:33:32.595Z,11.00
2019-05-26T18:36:02.855Z,11.10
2019-05-26T18:38:33.339Z,11.00
2019-05-26T18:41:03.807Z,11.00
2019-05-26T18:43:32.651Z,11.00
2019-05-26T18:46:02.827Z,11.00
2019-05-26T18:48:33.544Z,11.00
2019-05-26T18:51:11.267Z,11.10
2019-05-26T18:53:46.476Z,11.00
2019-05-26T18:56:20.072Z,11.10
2019-05-26T18:58:51.021Z,11.00
2019-05-26T19:01:20.915Z,11.00
2019-05-26T19:03:54.558Z,11.00
2019-05-26T19:06:24.697Z,10.90
2019-05-26T19:08:53.481Z,10.90
2019-05-26T19:11:22.767Z,10.80
2019-05-26T19:13:56.230Z,10.90
2019-05-26T19:16:27.003Z,10.80
2019-05-26T19:18:58.855Z,10.80
2019-05-26T19:21:33.611Z,10.80
2019-05-26T19:24:08.038Z,10.80
2019-05-26T19:26:36.983Z,10.80
2019-05-26T19:29:05.823Z,10.80
2019-05-26T19:31:34.673Z,10.70
2019-05-26T19:34:08.118Z,10.60
2019-05-26T19:36:40.256Z,10.70
2019-05-26T19:39:13.490Z,10.70
2019-05-26T19:41:45.951Z,10.60
2019-05-26T19:44:22.419Z,10.70
2019-05-26T19:46:53.027Z,10.60
2019-05-26T19:49:24.825Z,10.60
2019-05-26T19:51:58.514Z,10.60
2019-05-26T19:54:26.399Z,10.60
2019-05-26T19:56:55.380Z,10.60
2019-05-26T19:59:25.814Z,10.60
2019-05-26T20:01:53.895Z,10.60
2019-05-26T20:04:28.812Z,10.70
2019-05-26T20:07:01.208Z,10.70
2019-05-26T20:09:32.702Z,10.70
2019-05-26T20:12:01.551Z,10.70
2019-05-26T20:14:32.022Z,10.70
2019-05-26T20:17:00.924Z,10.70
2019-05-26T20:19:33.690Z,10.70
2019-05-26T20:22:06.491Z,10.70
2019-05-26T20:24:39.148Z,10.70
2019-05-26T20:27:07.765Z,10.70
2019-05-26T20:29:38.025Z,10.80
2019-05-26T20:32:08.257Z,10.70
2019-05-26T20:34:37.133Z,10.70
2019-05-26T20:37:09.237Z,10.70
2019-05-26T20:39:39.817Z,10.70
2019-05-26T20:42:12.578Z,10.70
2019-05-26T20:44:51.677Z,10.70
2019-05-26T20:47:19.402Z,10.70
2019-05-26T20:49:49.290Z,10.70
2019-05-26T20:52:17.287Z,10.60
2019-05-26T20:54:48.060Z,10.70
2019-05-26T20:57:19.767Z,10.70
2019-05-26T20:59:54.531Z,10.70
2019-05-26T21:02:23.426Z,10.70
2019-05-26T21:04:53.295Z,10.60
2019-05-26T21:07:21.301Z,10.60
2019-05-26T21:09:50.131Z,10.60
2019-05-26T21:12:20.774Z,10.60
2019-05-26T21:14:49.533Z,10.60
2019-05-26T21:17:18.459Z,10.60
2019-05-26T21:19:49.006Z,10.60
2019-05-26T21:22:18.097Z,10.60
2019-05-26T21:24:49.512Z,10.60
2019-05-26T21:27:18.296Z,10.50
2019-05-26T21:29:48.475Z,10.50
2019-05-26T21:32:17.266Z,10.50
2019-05-26T21:34:47.946Z,10.50
2019-05-26T21:37:16.651Z,10.50
2019-05-26T21:39:45.416Z,10.50
2019-05-26T21:42:16.070Z,10.50
2019-05-26T21:44:44.724Z,10.40
2019-05-26T21:47:14.601Z,10.40
2019-05-26T21:49:42.551Z,10.40
2019-05-26T21:52:11.388Z,10.50
2019-05-26T21:54:41.277Z,10.40
2019-05-26T21:57:11.795Z,10.40
2019-05-26T21:59:40.774Z,10.40
2019-05-26T22:02:09.962Z,10.40
2019-05-26T22:04:40.605Z,10.40
2019-05-26T22:07:11.110Z,10.40
2019-05-26T22:09:39.771Z,10.40
2019-05-26T22:12:08.561Z,10.40
2019-05-26T22:14:38.803Z,10.40
2019-05-26T22:17:10.646Z,10.40
2019-05-26T22:19:42.421Z,10.40
2019-05-26T22:22:13.080Z,10.40
2019-05-26T22:24:41.866Z,10.40
2019-05-26T22:27:12.939Z,10.40
2019-05-26T22:29:41.916Z,10.40
2019-05-26T22:32:10.910Z,10.40
2019-05-26T22:34:39.668Z,10.40
2019-05-26T22:37:09.598Z,10.40
2019-05-26T22:39:38.438Z,10.40
2019-05-26T22:42:07.205Z,10.40
2019-05-26T22:44:37.865Z,10.40
2019-05-26T22:47:06.658Z,10.30
2019-05-26T22:49:35.527Z,10.30
2019-05-26T22:52:04.415Z,10.30
2019-05-26T22:54:33.315Z,10.30
2019-05-26T22:57:02.144Z,10.30
2019-05-26T22:59:30.983Z,10.30
2019-05-26T23:01:59.789Z,10.30
2019-05-26T23:04:28.629Z,10.30
2019-05-26T23:06:57.635Z,10.20
2019-05-26T23:09:26.645Z,10.20
2019-05-26T23:11:58.058Z,10.20
2019-05-26T23:14:28.825Z,10.20
2019-05-26T23:16:57.354Z,10.20
2019-05-26T23:19:27.298Z,10.20
2019-05-26T23:22:00.341Z,10.20
2019-05-26T23:24:26.619Z,10.20
2019-05-26T23:26:56.906Z,10.10
2019-05-26T23:29:25.817Z,10.10
2019-05-26T23:31:55.926Z,10.10
2019-05-26T23:34:24.713Z,10.10
2019-05-26T23:36:53.486Z,10.10
2019-05-26T23:39:22.305Z,10.10
2019-05-26T23:41:51.230Z,10.10
2019-05-26T23:44:20.094Z,10.10
2019-05-26T23:46:48.905Z,10.00
2019-05-26T23:49:17.678Z,10.00
2019-05-26T23:51:46.485Z,10.00
2019-05-26T23:54:15.285Z,10.00
2019-05-26T23:56:44.112Z,10.00
2019-05-26T23:59:12.878Z,10.00
